createdAt,value
2022-12-26T00:02:01.134Z,86.47
2022-12-26T00:04:49.355Z,86.62
2022-12-26T00:07:17.612Z,86.56
2022-12-26T00:09:45.542Z,86.55
2022-12-26T00:12:14.739Z,86.65
2022-12-26T00:14:42.527Z,86.70
2022-12-26T00:17:12.740Z,86.61
2022-12-26T00:19:39.982Z,86.41
2022-12-26T00:22:08.805Z,86.52
2022-12-26T00:24:35.582Z,86.38
2022-12-26T00:27:04.825Z,86.65
2022-12-26T00:29:31.694Z,86.78
2022-12-26T00:31:59.927Z,86.64
2022-12-26T00:34:30.536Z,86.60
2022-12-26T00:36:58.435Z,86.85
2022-12-26T00:39:28.003Z,87.01
2022-12-26T00:41:55.635Z,86.74
2022-12-26T00:44:23.865Z,86.86
2022-12-26T00:46:53.669Z,86.87
2022-12-26T00:49:20.890Z,87.16
2022-12-26T00:51:50.424Z,87.12
2022-12-26T00:54:42.536Z,87.25
2022-12-26T00:57:13.758Z,87.08
2022-12-26T00:59:41.806Z,87.34
2022-12-26T01:02:30.478Z,87.29
2022-12-26T01:04:59.020Z,87.38
2022-12-26T01:07:28.729Z,87.45
2022-12-26T01:09:56.737Z,87.33
2022-12-26T01:12:26.759Z,87.29
2022-12-26T01:14:58.650Z,87.17
2022-12-26T01:17:28.507Z,87.05
2022-12-26T01:19:55.864Z,87.06
2022-12-26T01:22:24.453Z,87.13
2022-12-26T01:24:57.987Z,87.05
2022-12-26T01:27:28.437Z,86.83
2022-12-26T01:29:58.626Z,86.84
2022-12-26T01:32:25.433Z,86.77
2022-12-26T01:35:02.874Z,86.41
2022-12-26T01:37:29.833Z,86.22
2022-12-26T01:39:59.939Z,86.08
2022-12-26T01:42:27.313Z,85.99
2022-12-26T01:45:15.964Z,86.09
2022-12-26T01:47:49.184Z,85.63
2022-12-26T01:50:37.802Z,85.37
2022-12-26T01:53:10.544Z,85.22
2022-12-26T01:55:39.605Z,85.20
2022-12-26T01:58:26.689Z,84.87
2022-12-26T02:00:57.038Z,84.60
2022-12-26T02:03:45.537Z,84.54
2022-12-26T02:06:14.662Z,84.40
2022-12-26T02:08:46.543Z,84.17
2022-12-26T02:11:25.514Z,83.93
2022-12-26T02:13:54.976Z,83.76
2022-12-26T02:16:23.235Z,83.30
2022-12-26T02:18:54.133Z,83.29
2022-12-26T02:21:26.300Z,83.10
2022-12-26T02:24:16.574Z,82.99
2022-12-26T02:26:56.216Z,82.79
2022-12-26T02:29:41.715Z,82.86
2022-12-26T02:32:28.817Z,82.67
2022-12-26T02:35:14.634Z,82.23
2022-12-26T02:37:53.571Z,82.10
2022-12-26T02:40:43.062Z,82.10
2022-12-26T02:43:11.860Z,82.03
2022-12-26T02:46:16.283Z,81.72
2022-12-26T02:49:04.840Z,81.85
2022-12-26T02:52:10.384Z,81.87
2022-12-26T02:55:26.315Z,81.58
2022-12-26T02:58:12.558Z,81.39
2022-12-26T03:01:03.703Z,81.26
2022-12-26T03:03:53.871Z,81.24
2022-12-26T03:06:48.566Z,81.07
2022-12-26T03:09:39.827Z,81.00
2022-12-26T03:12:49.302Z,81.00
2022-12-26T03:15:19.396Z,80.78
2022-12-26T03:17:58.151Z,80.85
2022-12-26T03:20:28.017Z,80.95
2022-12-26T03:23:00.474Z,80.75
2022-12-26T03:26:02.174Z,80.97
2022-12-26T03:28:30.365Z,80.88
2022-12-26T03:31:00.291Z,80.61
2022-12-26T03:33:52.665Z,80.63
2022-12-26T03:36:40.077Z,80.63
2022-12-26T03:39:08.271Z,80.68
2022-12-26T03:42:04.025Z,80.59
2022-12-26T03:44:58.958Z,80.62
2022-12-26T03:48:23.283Z,80.45
2022-12-26T03:51:16.379Z,80.55
2022-12-26T03:54:08.113Z,80.47
2022-12-26T03:57:11.662Z,80.33
2022-12-26T04:00:12.979Z,80.33
2022-12-26T04:03:04.648Z,80.16
2022-12-26T04:05:55.084Z,80.13
2022-12-26T04:08:46.993Z,79.95
2022-12-26T04:11:36.346Z,79.89
2022-12-26T04:14:37.666Z,79.75
2022-12-26T04:17:39.919Z,79.53
2022-12-26T04:20:18.687Z,79.53
2022-12-26T04:23:13.191Z,79.51
2022-12-26T04:26:18.702Z,79.68
2022-12-26T04:29:09.877Z,79.28
2022-12-26T04:32:29.230Z,79.42
2022-12-26T04:35:49.528Z,79.28
2022-12-26T04:38:38.717Z,79.04
2022-12-26T04:41:30.844Z,79.12
2022-12-26T04:44:15.968Z,78.78
2022-12-26T04:46:44.351Z,78.91
2022-12-26T04:49:32.765Z,78.78
2022-12-26T04:52:11.827Z,78.74
2022-12-26T04:54:40.127Z,78.70
2022-12-26T04:57:08.846Z,78.72
2022-12-26T04:59:40.427Z,78.50
2022-12-26T05:02:29.658Z,78.55
2022-12-26T05:05:15.812Z,78.36
2022-12-26T05:08:04.837Z,78.17
2022-12-26T05:10:32.936Z,78.27
2022-12-26T05:12:59.990Z,78.08
2022-12-26T05:15:52.793Z,78.13
2022-12-26T05:18:40.008Z,78.27
2022-12-26T05:21:40.154Z,78.14
2022-12-26T05:24:28.838Z,78.30
2022-12-26T05:27:16.792Z,78.19
2022-12-26T05:29:45.033Z,78.22
2022-12-26T05:32:12.258Z,78.38
2022-12-26T05:34:42.268Z,78.32
2022-12-26T05:37:11.467Z,78.33
2022-12-26T05:39:42.175Z,78.39
2022-12-26T05:42:11.015Z,78.38
2022-12-26T05:44:38.150Z,78.17
2022-12-26T05:47:06.083Z,78.33
2022-12-26T05:49:33.178Z,78.37
2022-12-26T05:52:01.734Z,78.43
2022-12-26T05:54:31.667Z,78.53
2022-12-26T05:57:00.818Z,78.35
2022-12-26T05:59:30.903Z,78.40
2022-12-26T06:01:58.285Z,78.43
2022-12-26T06:04:27.733Z,78.52
2022-12-26T06:06:56.458Z,78.76
2022-12-26T06:09:26.524Z,78.60
2022-12-26T06:11:55.506Z,78.65
2022-12-26T06:14:24.355Z,79.09
2022-12-26T06:16:51.178Z,79.02
2022-12-26T06:19:19.128Z,78.69
2022-12-26T06:21:47.167Z,78.83
2022-12-26T06:24:14.246Z,78.99
2022-12-26T06:26:46.079Z,78.99
2022-12-26T06:29:16.489Z,79.19
2022-12-26T06:31:44.184Z,79.05
2022-12-26T06:34:11.462Z,79.25
2022-12-26T06:36:38.327Z,79.14
2022-12-26T06:39:06.211Z,79.37
2022-12-26T06:41:34.431Z,79.34
2022-12-26T06:44:02.647Z,79.28
2022-12-26T06:46:30.336Z,79.34
2022-12-26T06:48:59.715Z,79.65
2022-12-26T06:51:38.162Z,79.65
2022-12-26T06:54:07.259Z,79.79
2022-12-26T06:56:35.542Z,79.62
2022-12-26T06:59:05.577Z,79.82
2022-12-26T07:01:34.790Z,79.64
2022-12-26T07:04:04.854Z,79.73
2022-12-26T07:06:39.421Z,79.83
2022-12-26T07:09:09.582Z,79.92
2022-12-26T07:11:38.086Z,80.00
2022-12-26T07:14:08.287Z,80.24
2022-12-26T07:16:36.396Z,79.94
2022-12-26T07:19:05.243Z,80.20
2022-12-26T07:21:40.464Z,80.22
2022-12-26T07:24:19.991Z,79.90
2022-12-26T07:26:48.805Z,79.90
2022-12-26T07:29:19.286Z,80.23
2022-12-26T07:31:47.773Z,79.95
2022-12-26T07:34:15.835Z,80.08
2022-12-26T07:36:43.278Z,79.86
2022-12-26T07:39:13.146Z,79.75
2022-12-26T07:42:00.186Z,79.75
2022-12-26T07:44:33.479Z,79.67
2022-12-26T07:47:01.456Z,79.50
2022-12-26T07:49:28.380Z,79.32
2022-12-26T07:51:56.265Z,79.38
2022-12-26T07:54:26.295Z,79.12
2022-12-26T07:57:15.107Z,79.04
2022-12-26T07:59:45.357Z,79.12
2022-12-26T08:02:13.346Z,78.90
2022-12-26T08:04:44.282Z,78.63
2022-12-26T08:07:12.710Z,78.59
2022-12-26T08:09:50.100Z,78.54
2022-12-26T08:12:22.428Z,78.46
2022-12-26T08:14:54.158Z,78.50
2022-12-26T08:17:22.114Z,78.38
2022-12-26T08:19:51.433Z,78.24
2022-12-26T08:22:19.602Z,78.30
2022-12-26T08:24:46.351Z,78.29
2022-12-26T08:27:16.974Z,78.07
2022-12-26T08:29:49.307Z,77.87
2022-12-26T08:32:16.485Z,77.90
2022-12-26T08:34:44.452Z,77.82
2022-12-26T08:37:14.471Z,77.94
2022-12-26T08:40:07.189Z,77.87
2022-12-26T08:42:44.735Z,77.56
2022-12-26T08:45:20.773Z,77.74
2022-12-26T08:47:48.538Z,77.63
2022-12-26T08:50:16.280Z,77.53
2022-12-26T08:52:44.448Z,77.41
2022-12-26T08:55:13.689Z,77.56
2022-12-26T08:57:43.095Z,77.43
2022-12-26T09:00:13.120Z,77.62
2022-12-26T09:02:44.175Z,77.52
2022-12-26T09:05:13.603Z,77.48
2022-12-26T09:07:42.150Z,77.38
2022-12-26T09:10:11.664Z,77.45
2022-12-26T09:12:39.695Z,77.55
2022-12-26T09:15:07.624Z,77.46
2022-12-26T09:17:35.685Z,77.62
2022-12-26T09:20:03.881Z,77.55
2022-12-26T09:22:54.859Z,77.54
2022-12-26T09:25:34.079Z,77.70
2022-12-26T09:28:01.450Z,77.48
2022-12-26T09:30:31.440Z,77.79
2022-12-26T09:33:00.798Z,77.59
2022-12-26T09:35:29.882Z,77.78
2022-12-26T09:37:57.419Z,77.63
2022-12-26T09:40:30.806Z,77.69
2022-12-26T09:43:10.158Z,77.60
2022-12-26T09:45:54.198Z,77.61
2022-12-26T09:48:35.360Z,77.94
2022-12-26T09:51:03.818Z,77.64
2022-12-26T09:53:33.703Z,77.85
2022-12-26T09:56:18.394Z,77.69
2022-12-26T09:59:00.840Z,77.82
2022-12-26T10:01:36.748Z,77.68
2022-12-26T10:04:26.751Z,77.54
2022-12-26T10:07:09.021Z,77.55
2022-12-26T10:09:51.300Z,77.50
2022-12-26T10:12:41.320Z,77.43
2022-12-26T10:15:30.604Z,77.21
2022-12-26T10:18:15.828Z,77.13
2022-12-26T10:20:54.200Z,77.01
2022-12-26T10:23:41.173Z,77.02
2022-12-26T10:26:14.692Z,76.82
2022-12-26T10:28:59.790Z,76.80
2022-12-26T10:31:30.069Z,76.39
2022-12-26T10:34:10.392Z,76.75
2022-12-26T10:36:42.213Z,76.36
2022-12-26T10:39:30.377Z,76.29
2022-12-26T10:42:09.941Z,76.22
2022-12-26T10:44:43.520Z,75.87
2022-12-26T10:47:18.719Z,75.58
2022-12-26T10:49:46.631Z,75.60
2022-12-26T10:52:17.377Z,75.50
2022-12-26T10:54:47.893Z,75.15
2022-12-26T10:57:16.672Z,75.16
2022-12-26T10:59:49.452Z,75.13
2022-12-26T11:02:32.245Z,75.09
2022-12-26T11:07:58.335Z,74.66
2022-12-26T11:10:35.833Z,74.70
2022-12-26T11:13:06.481Z,74.55
2022-12-26T11:15:41.125Z,74.79
2022-12-26T11:18:21.432Z,74.68
2022-12-26T11:20:52.638Z,74.79
2022-12-26T11:23:27.463Z,74.87
2022-12-26T11:25:56.112Z,75.04
2022-12-26T11:28:36.518Z,75.17
2022-12-26T11:31:06.300Z,75.09
2022-12-26T11:33:38.836Z,75.44
2022-12-26T11:36:32.908Z,75.63
2022-12-26T11:39:19.271Z,75.52
2022-12-26T11:41:57.163Z,75.51
2022-12-26T11:44:25.655Z,75.63
2022-12-26T11:46:58.300Z,75.91
2022-12-26T11:49:30.775Z,76.07
2022-12-26T11:51:59.969Z,76.25
2022-12-26T11:54:32.535Z,76.26
2022-12-26T11:57:03.066Z,76.50
2022-12-26T11:59:33.855Z,76.71
2022-12-26T12:02:21.476Z,76.98
2022-12-26T12:04:50.681Z,77.20
2022-12-26T12:07:27.444Z,77.10
2022-12-26T12:10:22.149Z,77.49
2022-12-26T12:13:12.610Z,77.47
2022-12-26T12:16:00.135Z,77.69
2022-12-26T12:18:50.239Z,78.10
2022-12-26T12:21:38.911Z,78.15
2022-12-26T12:24:05.663Z,78.19
2022-12-26T12:26:38.494Z,78.40
2022-12-26T12:29:16.829Z,78.55
2022-12-26T12:32:02.822Z,78.70
2022-12-26T12:34:34.649Z,78.71
2022-12-26T12:37:13.315Z,78.92
2022-12-26T12:39:55.304Z,78.96
2022-12-26T12:42:37.361Z,78.99
2022-12-26T12:45:19.366Z,79.09
2022-12-26T12:47:52.237Z,79.16
2022-12-26T12:50:25.807Z,79.36
2022-12-26T12:53:05.088Z,79.28
2022-12-26T12:55:55.568Z,79.54
2022-12-26T12:58:37.563Z,79.57
2022-12-26T13:01:13.933Z,79.45
2022-12-26T13:03:50.327Z,79.83
2022-12-26T13:06:20.201Z,79.60
2022-12-26T13:08:59.001Z,79.69
2022-12-26T13:11:28.396Z,79.94
2022-12-26T13:14:02.907Z,79.89
2022-12-26T13:16:33.293Z,80.14
2022-12-26T13:19:02.216Z,79.99
2022-12-26T13:21:31.243Z,80.17
2022-12-26T13:24:23.121Z,80.30
2022-12-26T13:26:50.930Z,80.43
2022-12-26T13:29:20.591Z,80.54
2022-12-26T13:31:47.590Z,80.83
2022-12-26T13:34:18.551Z,80.61
2022-12-26T13:36:49.865Z,81.01
2022-12-26T13:39:23.820Z,80.87
2022-12-26T13:42:13.416Z,81.00
2022-12-26T13:44:40.884Z,81.29
2022-12-26T13:47:27.520Z,81.20
2022-12-26T13:49:54.276Z,81.00
2022-12-26T13:52:25.506Z,80.95
2022-12-26T13:54:52.262Z,80.93
2022-12-26T13:57:21.701Z,81.01
2022-12-26T14:00:00.751Z,81.11
2022-12-26T14:05:42.419Z,81.11
2022-12-26T14:08:29.586Z,81.07
2022-12-26T14:11:18.126Z,81.22
2022-12-26T14:14:05.569Z,81.18
2022-12-26T14:16:38.923Z,81.02
2022-12-26T14:19:24.552Z,81.06
2022-12-26T14:21:57.785Z,81.28
2022-12-26T14:24:44.287Z,81.19
2022-12-26T14:27:31.982Z,81.19
2022-12-26T14:30:01.806Z,81.18
2022-12-26T14:32:51.284Z,81.20
2022-12-26T14:35:44.367Z,81.22
2022-12-26T14:38:21.196Z,81.17
2022-12-26T14:41:05.057Z,81.13
2022-12-26T14:43:34.307Z,81.06
2022-12-26T14:46:01.893Z,81.20
2022-12-26T14:48:28.728Z,81.34
2022-12-26T14:51:15.387Z,81.34
2022-12-26T14:53:43.353Z,81.27
2022-12-26T14:56:16.110Z,81.24
2022-12-26T14:58:43.985Z,81.39
2022-12-26T15:01:13.676Z,81.28
2022-12-26T15:03:46.578Z,81.49
2022-12-26T15:06:19.817Z,81.41
2022-12-26T15:09:05.971Z,81.66
2022-12-26T15:11:51.278Z,81.65
2022-12-26T15:14:36.530Z,81.61
2022-12-26T15:17:11.745Z,81.76
2022-12-26T15:19:52.788Z,81.78
2022-12-26T15:22:37.766Z,81.78
2022-12-26T15:25:20.030Z,81.93
2022-12-26T15:28:03.195Z,81.82
2022-12-26T15:30:48.633Z,81.88
2022-12-26T15:33:34.691Z,81.82
2022-12-26T15:36:05.107Z,82.01
2022-12-26T15:38:40.648Z,82.21
2022-12-26T15:41:25.803Z,82.23
2022-12-26T15:44:01.761Z,82.23
2022-12-26T15:46:33.288Z,82.56
2022-12-26T15:49:18.747Z,82.52
2022-12-26T15:51:55.879Z,82.77
2022-12-26T15:54:30.631Z,82.68
2022-12-26T15:57:34.544Z,83.20
2022-12-26T16:00:13.002Z,83.11
2022-12-26T16:02:47.021Z,83.33
2022-12-26T16:05:32.026Z,83.47
2022-12-26T16:08:06.079Z,83.66
2022-12-26T16:10:34.865Z,83.82
2022-12-26T16:13:01.526Z,83.96
2022-12-26T16:15:30.766Z,84.18
2022-12-26T16:18:12.624Z,84.05
2022-12-26T16:20:57.787Z,84.17
2022-12-26T16:23:27.461Z,84.43
2022-12-26T16:25:55.566Z,84.48
2022-12-26T16:28:26.927Z,84.66
2022-12-26T16:30:53.847Z,84.85
2022-12-26T16:33:20.555Z,85.12
2022-12-26T16:35:47.447Z,85.25
2022-12-26T16:38:18.704Z,85.30
2022-12-26T16:40:47.035Z,85.59
2022-12-26T16:43:19.816Z,85.54
2022-12-26T16:45:47.826Z,85.86
2022-12-26T16:48:15.685Z,86.09
2022-12-26T16:50:46.589Z,86.21
2022-12-26T16:53:16.316Z,86.36
2022-12-26T16:55:48.226Z,86.30
2022-12-26T16:58:17.171Z,86.48
2022-12-26T17:00:49.018Z,86.31
2022-12-26T17:03:27.918Z,86.52
2022-12-26T17:05:55.873Z,86.54
2022-12-26T17:08:27.324Z,86.98
2022-12-26T17:10:54.331Z,86.83
2022-12-26T17:13:24.593Z,86.96
2022-12-26T17:15:53.945Z,87.21
2022-12-26T17:18:39.392Z,87.31
2022-12-26T17:21:17.243Z,87.28
2022-12-26T17:23:44.079Z,87.29
2022-12-26T17:26:21.950Z,87.46
2022-12-26T17:28:48.863Z,87.35
2022-12-26T17:31:20.680Z,87.63
2022-12-26T17:33:48.790Z,87.79
2022-12-26T17:39:18.662Z,87.76
2022-12-26T17:41:54.390Z,87.83
2022-12-26T17:44:41.219Z,87.69
2022-12-26T17:47:20.273Z,88.00
2022-12-26T17:49:47.951Z,87.98
2022-12-26T17:52:16.198Z,87.92
2022-12-26T17:54:42.988Z,88.00
2022-12-26T17:57:20.877Z,88.02
2022-12-26T17:59:49.000Z,88.00
2022-12-26T18:02:16.214Z,88.34
2022-12-26T18:04:44.008Z,88.19
2022-12-26T18:07:12.771Z,88.55
2022-12-26T18:09:40.561Z,88.45
2022-12-26T18:12:07.524Z,88.83
2022-12-26T18:14:34.439Z,88.87
2022-12-26T18:17:01.825Z,89.08
2022-12-26T18:19:28.624Z,88.89
2022-12-26T18:21:55.311Z,89.18
2022-12-26T18:24:22.031Z,89.33
2022-12-26T18:26:49.884Z,89.32
2022-12-26T18:29:17.584Z,89.31
2022-12-26T18:31:44.425Z,89.45
2022-12-26T18:34:11.328Z,89.39
2022-12-26T18:36:41.168Z,89.32
2022-12-26T18:39:08.052Z,89.49
2022-12-26T18:41:36.238Z,89.38
2022-12-26T18:44:03.147Z,89.66
2022-12-26T18:46:30.074Z,89.57
2022-12-26T18:48:57.647Z,89.52
2022-12-26T18:51:25.005Z,89.54
2022-12-26T18:53:52.689Z,89.80
2022-12-26T18:56:20.435Z,89.78
2022-12-26T18:58:53.912Z,89.74
2022-12-26T19:01:24.229Z,89.68
2022-12-26T19:03:51.291Z,89.71
2022-12-26T19:06:25.991Z,89.94
2022-12-26T19:08:53.835Z,89.89
2022-12-26T19:11:20.522Z,89.92
2022-12-26T19:13:47.719Z,89.79
2022-12-26T19:16:14.748Z,89.95
2022-12-26T19:18:41.696Z,90.10
2022-12-26T19:21:14.946Z,89.91
2022-12-26T19:23:42.494Z,89.91
2022-12-26T19:26:10.319Z,90.01
2022-12-26T19:28:38.435Z,90.02
2022-12-26T19:31:09.280Z,89.82
2022-12-26T19:33:36.206Z,90.10
2022-12-26T19:36:03.382Z,89.86
2022-12-26T19:38:30.554Z,89.92
2022-12-26T19:41:01.172Z,89.91
2022-12-26T19:43:28.643Z,89.95
2022-12-26T19:46:02.534Z,89.73
2022-12-26T19:48:30.323Z,89.99
2022-12-26T19:51:00.409Z,89.83
2022-12-26T19:53:27.178Z,89.92
2022-12-26T19:55:53.884Z,89.77
2022-12-26T19:58:20.671Z,89.67
2022-12-26T20:00:47.458Z,89.67
2022-12-26T20:03:14.323Z,89.52
2022-12-26T20:05:44.260Z,89.47
2022-12-26T20:08:12.793Z,89.45
2022-12-26T20:10:40.884Z,89.54
2022-12-26T20:13:07.680Z,89.41
2022-12-26T20:15:34.786Z,89.15
2022-12-26T20:18:01.829Z,89.14
2022-12-26T20:20:29.373Z,89.07
2022-12-26T20:22:56.124Z,89.00
2022-12-26T20:25:22.831Z,89.05
2022-12-26T20:27:49.867Z,89.28
2022-12-26T20:30:16.667Z,89.10
2022-12-26T20:32:46.819Z,89.04
2022-12-26T20:35:14.309Z,88.97
2022-12-26T20:37:41.032Z,88.94
2022-12-26T20:40:08.049Z,88.93
2022-12-26T20:42:34.798Z,88.85
2022-12-26T20:45:01.558Z,88.74
2022-12-26T20:47:28.427Z,88.80
2022-12-26T20:49:56.030Z,88.68
2022-12-26T20:52:22.781Z,88.70
2022-12-26T20:54:49.826Z,88.61
2022-12-26T20:57:16.514Z,88.70
2022-12-26T20:59:43.304Z,88.52
2022-12-26T21:02:12.132Z,88.44
2022-12-26T21:04:39.082Z,88.44
2022-12-26T21:07:05.765Z,88.43
2022-12-26T21:09:32.650Z,88.43
2022-12-26T21:11:59.331Z,88.45
2022-12-26T21:14:26.123Z,88.32
2022-12-26T21:16:54.267Z,88.27
2022-12-26T21:19:22.185Z,88.11
2022-12-26T21:21:50.464Z,88.14
2022-12-26T21:24:23.521Z,88.04
2022-12-26T21:26:51.302Z,88.00
2022-12-26T21:29:25.676Z,87.77
2022-12-26T21:31:53.641Z,87.95
2022-12-26T21:34:21.725Z,87.84
2022-12-26T21:37:07.492Z,87.98
2022-12-26T21:39:35.278Z,87.69
2022-12-26T21:42:02.497Z,87.68
2022-12-26T21:44:29.559Z,87.58
2022-12-26T21:46:56.353Z,87.73
2022-12-26T21:49:24.388Z,87.57
2022-12-26T21:51:51.192Z,87.67
2022-12-26T21:54:36.605Z,87.36
2022-12-26T21:57:04.138Z,87.66
2022-12-26T21:59:49.173Z,87.59
2022-12-26T22:02:35.617Z,87.39
2022-12-26T22:05:02.554Z,87.53
2022-12-26T22:07:29.531Z,87.33
2022-12-26T22:09:56.401Z,87.30
2022-12-26T22:12:42.678Z,87.33
2022-12-26T22:15:30.557Z,87.42
2022-12-26T22:18:01.978Z,87.21
2022-12-26T22:20:28.783Z,87.10
2022-12-26T22:22:56.023Z,87.07
2022-12-26T22:25:22.773Z,86.98
2022-12-26T22:27:49.455Z,87.08
2022-12-26T22:30:17.230Z,87.20
2022-12-26T22:32:43.891Z,86.87
2022-12-26T22:35:16.524Z,87.00
2022-12-26T22:37:45.336Z,86.91
2022-12-26T22:40:12.236Z,86.88
2022-12-26T22:42:38.983Z,86.67
2022-12-26T22:45:05.933Z,86.95
2022-12-26T22:47:32.676Z,86.88
2022-12-26T22:49:59.343Z,86.86
2022-12-26T22:52:26.855Z,86.91
2022-12-26T22:54:54.500Z,86.82
2022-12-26T22:57:22.655Z,86.85
2022-12-26T23:02:37.023Z,87.04
2022-12-26T23:05:04.201Z,87.06
2022-12-26T23:07:32.327Z,87.13
2022-12-26T23:09:59.336Z,87.27
2022-12-26T23:12:44.390Z,87.02
2022-12-26T23:15:29.603Z,87.12
2022-12-26T23:18:34.562Z,87.14
2022-12-26T23:21:25.667Z,87.21
2022-12-26T23:23:52.469Z,87.28
2022-12-26T23:26:19.141Z,87.16
2022-12-26T23:29:04.256Z,87.04
2022-12-26T23:31:30.967Z,87.12
2022-12-26T23:33:57.613Z,87.04
2022-12-26T23:36:24.327Z,87.08
2022-12-26T23:38:50.991Z,87.15
2022-12-26T23:41:17.916Z,87.24
2022-12-26T23:43:44.622Z,87.44
2022-12-26T23:46:11.368Z,87.31
2022-12-26T23:48:38.199Z,87.37
2022-12-26T23:51:07.384Z,87.33
2022-12-26T23:53:34.341Z,87.55
2022-12-26T23:56:01.103Z,87.51
2022-12-26T23:58:27.868Z,87.68
